<?xml version="1.0" encoding="UTF-8" standalone="no" ?>
<gpx xmlns="http://www.topografix.com/GPX/1/1" xmlns:xsi="http://www.w3.org/2001/XMLSchema-instance" xsi:schemaLocation="http://www.topografix.com/GPX/1/1 http://www.topografix.com/GPX/1/1/gpx.xsd" version="1.1" creator="VisuGPX - https://www.visugpx.com">
  <metadata>
    <name>Los Brecitos - las Angustias</name>
    <desc><![CDATA[Los Brecitos - las Angustias]]></desc>
  </metadata>
  <trk>
    <name><![CDATA[CALDERA DE TABURIENTE: PR LP 13 Los Brecitos  - Barranco de ...]]></name>
    <trkseg>
      <trkpt lat="28.71165" lon="-17.9007">
        <ele>1061.9</ele>
        <time>2014-03-02T11:58:31Z</time>
      </trkpt>
      <trkpt lat="28.71227" lon="-17.90062">
        <ele>1084.5</ele>
        <time>2014-03-02T12:01:50Z</time>
      </trkpt>
      <trkpt lat="28.71288" lon="-17.90116">
        <ele>1079.7</ele>
        <time>2014-03-02T12:03:37Z</time>
      </trkpt>
      <trkpt lat="28.71322" lon="-17.90104">
        <ele>1072</ele>
        <time>2014-03-02T12:04:28Z</time>
      </trkpt>
      <trkpt lat="28.71357" lon="-17.90141">
        <ele>1061.9</ele>
        <time>2014-03-02T12:05:13Z</time>
      </trkpt>
      <trkpt lat="28.71421" lon="-17.90161">
        <ele>1051.8</ele>
        <time>2014-03-02T12:06:19Z</time>
      </trkpt>
      <trkpt lat="28.71434" lon="-17.9014">
        <ele>1054.7</ele>
        <time>2014-03-02T12:07:09Z</time>
      </trkpt>
      <trkpt lat="28.71459" lon="-17.90137">
        <ele>1056.6</ele>
        <time>2014-03-02T12:07:43Z</time>
      </trkpt>
      <trkpt lat="28.71534" lon="-17.90179">
        <ele>1052.8</ele>
        <time>2014-03-02T12:09:55Z</time>
      </trkpt>
      <trkpt lat="28.71631" lon="-17.90144">
        <ele>1049.4</ele>
        <time>2014-03-02T12:12:17Z</time>
      </trkpt>
      <trkpt lat="28.71604" lon="-17.90093">
        <ele>1053.7</ele>
        <time>2014-03-02T12:13:43Z</time>
      </trkpt>
      <trkpt lat="28.71627" lon="-17.89978">
        <ele>1061.9</ele>
        <time>2014-03-02T12:15:30Z</time>
      </trkpt>
      <trkpt lat="28.71618" lon="-17.89968">
        <ele>1065.3</ele>
        <time>2014-03-02T12:15:45Z</time>
      </trkpt>
      <trkpt lat="28.71625" lon="-17.89883">
        <ele>1073.5</ele>
        <time>2014-03-02T12:17:03Z</time>
      </trkpt>
      <trkpt lat="28.71608" lon="-17.89838">
        <ele>1072</ele>
        <time>2014-03-02T12:18:05Z</time>
      </trkpt>
      <trkpt lat="28.71627" lon="-17.89808">
        <ele>1073</ele>
        <time>2014-03-02T12:18:42Z</time>
      </trkpt>
      <trkpt lat="28.71654" lon="-17.8982">
        <ele>1073</ele>
        <time>2014-03-02T12:19:36Z</time>
      </trkpt>
      <trkpt lat="28.71745" lon="-17.89902">
        <ele>1076.8</ele>
        <time>2014-03-02T12:21:32Z</time>
      </trkpt>
      <trkpt lat="28.71758" lon="-17.89813">
        <ele>1075.4</ele>
        <time>2014-03-02T12:23:06Z</time>
      </trkpt>
      <trkpt lat="28.71708" lon="-17.89737">
        <ele>1074.9</ele>
        <time>2014-03-02T12:24:35Z</time>
      </trkpt>
      <trkpt lat="28.71701" lon="-17.89694">
        <ele>1079.2</ele>
        <time>2014-03-02T12:25:46Z</time>
      </trkpt>
      <trkpt lat="28.71726" lon="-17.89635">
        <ele>1077.3</ele>
        <time>2014-03-02T12:28:24Z</time>
      </trkpt>
      <trkpt lat="28.71733" lon="-17.89575">
        <ele>1066.7</ele>
        <time>2014-03-02T12:29:35Z</time>
      </trkpt>
      <trkpt lat="28.71789" lon="-17.89554">
        <ele>1061</ele>
        <time>2014-03-02T12:30:27Z</time>
      </trkpt>
      <trkpt lat="28.71866" lon="-17.89495">
        <ele>1050.9</ele>
        <time>2014-03-02T12:31:44Z</time>
      </trkpt>
      <trkpt lat="28.72006" lon="-17.89526">
        <ele>1042.7</ele>
        <time>2014-03-02T12:34:08Z</time>
      </trkpt>
      <trkpt lat="28.72051" lon="-17.89588">
        <ele>1033.1</ele>
        <time>2014-03-02T12:35:28Z</time>
      </trkpt>
      <trkpt lat="28.72048" lon="-17.89609">
        <ele>1033.6</ele>
        <time>2014-03-02T12:36:04Z</time>
      </trkpt>
      <trkpt lat="28.7208" lon="-17.89618">
        <ele>1033.1</ele>
        <time>2014-03-02T12:36:47Z</time>
      </trkpt>
      <trkpt lat="28.72085" lon="-17.89515">
        <ele>1022</ele>
        <time>2014-03-02T12:38:26Z</time>
      </trkpt>
      <trkpt lat="28.7207" lon="-17.89479">
        <ele>1016.3</ele>
        <time>2014-03-02T12:38:59Z</time>
      </trkpt>
      <trkpt lat="28.72095" lon="-17.89386">
        <ele>1006.2</ele>
        <time>2014-03-02T12:40:39Z</time>
      </trkpt>
      <trkpt lat="28.72083" lon="-17.89346">
        <ele>1003.8</ele>
        <time>2014-03-02T12:41:09Z</time>
      </trkpt>
      <trkpt lat="28.72134" lon="-17.89312">
        <ele>1000.9</ele>
        <time>2014-03-02T12:42:02Z</time>
      </trkpt>
      <trkpt lat="28.7219" lon="-17.89316">
        <ele>992.7</ele>
        <time>2014-03-02T12:42:59Z</time>
      </trkpt>
      <trkpt lat="28.72222" lon="-17.89338">
        <ele>989.8</ele>
        <time>2014-03-02T12:43:30Z</time>
      </trkpt>
      <trkpt lat="28.72243" lon="-17.89323">
        <ele>988.9</ele>
        <time>2014-03-02T12:44:10Z</time>
      </trkpt>
      <trkpt lat="28.72242" lon="-17.89187">
        <ele>988.9</ele>
        <time>2014-03-02T12:46:35Z</time>
      </trkpt>
      <trkpt lat="28.72219" lon="-17.89172">
        <ele>990.3</ele>
        <time>2014-03-02T12:46:58Z</time>
      </trkpt>
      <trkpt lat="28.72205" lon="-17.89101">
        <ele>986</ele>
        <time>2014-03-02T12:47:54Z</time>
      </trkpt>
      <trkpt lat="28.72215" lon="-17.89009">
        <ele>979.2</ele>
        <time>2014-03-02T12:49:18Z</time>
      </trkpt>
      <trkpt lat="28.72126" lon="-17.88955">
        <ele>972</ele>
        <time>2014-03-02T12:53:11Z</time>
      </trkpt>
      <trkpt lat="28.72174" lon="-17.88916">
        <ele>966.3</ele>
        <time>2014-03-02T12:59:00Z</time>
      </trkpt>
      <trkpt lat="28.72159" lon="-17.88867">
        <ele>953.3</ele>
        <time>2014-03-02T13:00:16Z</time>
      </trkpt>
      <trkpt lat="28.72208" lon="-17.8877">
        <ele>949.4</ele>
        <time>2014-03-02T13:02:33Z</time>
      </trkpt>
      <trkpt lat="28.72262" lon="-17.88778">
        <ele>946.6</ele>
        <time>2014-03-02T13:03:44Z</time>
      </trkpt>
      <trkpt lat="28.72251" lon="-17.88727">
        <ele>936</ele>
        <time>2014-03-02T13:05:15Z</time>
      </trkpt>
      <trkpt lat="28.72271" lon="-17.88714">
        <ele>932.6</ele>
        <time>2014-03-02T13:05:46Z</time>
      </trkpt>
      <trkpt lat="28.7226" lon="-17.88706">
        <ele>930.7</ele>
        <time>2014-03-02T13:06:00Z</time>
      </trkpt>
      <trkpt lat="28.72286" lon="-17.88698">
        <ele>933.1</ele>
        <time>2014-03-02T13:10:35Z</time>
      </trkpt>
      <trkpt lat="28.72273" lon="-17.88684">
        <ele>933.1</ele>
        <time>2014-03-02T13:11:32Z</time>
      </trkpt>
      <trkpt lat="28.72261" lon="-17.88712">
        <ele>935</ele>
        <time>2014-03-02T13:14:21Z</time>
      </trkpt>
      <trkpt lat="28.72261" lon="-17.88659">
        <ele>930.7</ele>
        <time>2014-03-02T13:18:24Z</time>
      </trkpt>
      <trkpt lat="28.72239" lon="-17.88633">
        <ele>924.9</ele>
        <time>2014-03-02T13:18:56Z</time>
      </trkpt>
      <trkpt lat="28.72236" lon="-17.88537">
        <ele>921.1</ele>
        <time>2014-03-02T13:20:15Z</time>
      </trkpt>
      <trkpt lat="28.72272" lon="-17.88511">
        <ele>920.1</ele>
        <time>2014-03-02T13:21:01Z</time>
      </trkpt>
      <trkpt lat="28.72278" lon="-17.88482">
        <ele>917.7</ele>
        <time>2014-03-02T13:21:24Z</time>
      </trkpt>
      <trkpt lat="28.72379" lon="-17.88452">
        <ele>901.9</ele>
        <time>2014-03-02T13:23:19Z</time>
      </trkpt>
      <trkpt lat="28.72367" lon="-17.88409">
        <ele>899.5</ele>
        <time>2014-03-02T13:23:52Z</time>
      </trkpt>
      <trkpt lat="28.72383" lon="-17.8836">
        <ele>890.3</ele>
        <time>2014-03-02T13:24:49Z</time>
      </trkpt>
      <trkpt lat="28.72372" lon="-17.88335">
        <ele>886.5</ele>
        <time>2014-03-02T13:25:13Z</time>
      </trkpt>
      <trkpt lat="28.72404" lon="-17.88295">
        <ele>884.6</ele>
        <time>2014-03-02T13:26:07Z</time>
      </trkpt>
      <trkpt lat="28.7237" lon="-17.88301">
        <ele>883.6</ele>
        <time>2014-03-02T13:27:35Z</time>
      </trkpt>
      <trkpt lat="28.72336" lon="-17.8829">
        <ele>884.1</ele>
        <time>2014-03-02T13:28:21Z</time>
      </trkpt>
      <trkpt lat="28.72253" lon="-17.88224">
        <ele>878.3</ele>
        <time>2014-03-02T13:29:52Z</time>
      </trkpt>
      <trkpt lat="28.7222" lon="-17.88141">
        <ele>871.6</ele>
        <time>2014-03-02T13:31:17Z</time>
      </trkpt>
      <trkpt lat="28.7222" lon="-17.88106">
        <ele>871.1</ele>
        <time>2014-03-02T13:31:41Z</time>
      </trkpt>
      <trkpt lat="28.72272" lon="-17.88043">
        <ele>868.2</ele>
        <time>2014-03-02T13:32:45Z</time>
      </trkpt>
      <trkpt lat="28.72357" lon="-17.88011">
        <ele>860.5</ele>
        <time>2014-03-02T13:34:08Z</time>
      </trkpt>
      <trkpt lat="28.72379" lon="-17.87986">
        <ele>851.9</ele>
        <time>2014-03-02T13:34:58Z</time>
      </trkpt>
      <trkpt lat="28.72286" lon="-17.87945">
        <ele>848</ele>
        <time>2014-03-02T13:40:34Z</time>
      </trkpt>
      <trkpt lat="28.72256" lon="-17.87959">
        <ele>847.1</ele>
        <time>2014-03-02T13:41:27Z</time>
      </trkpt>
      <trkpt lat="28.72235" lon="-17.8791">
        <ele>850.9</ele>
        <time>2014-03-02T13:41:54Z</time>
      </trkpt>
      <trkpt lat="28.72187" lon="-17.87864">
        <ele>850.4</ele>
        <time>2014-03-02T13:42:58Z</time>
      </trkpt>
      <trkpt lat="28.72176" lon="-17.87826">
        <ele>845.1</ele>
        <time>2014-03-02T13:43:59Z</time>
      </trkpt>
      <trkpt lat="28.72231" lon="-17.87779">
        <ele>838.9</ele>
        <time>2014-03-02T13:45:49Z</time>
      </trkpt>
      <trkpt lat="28.72315" lon="-17.87751">
        <ele>835.5</ele>
        <time>2014-03-02T13:48:55Z</time>
      </trkpt>
      <trkpt lat="28.72414" lon="-17.87688">
        <ele>822.1</ele>
        <time>2014-03-02T13:51:50Z</time>
      </trkpt>
      <trkpt lat="28.7249" lon="-17.87668">
        <ele>804.3</ele>
        <time>2014-03-02T13:53:07Z</time>
      </trkpt>
      <trkpt lat="28.72492" lon="-17.87645">
        <ele>797.1</ele>
        <time>2014-03-02T13:53:40Z</time>
      </trkpt>
      <trkpt lat="28.72424" lon="-17.87617">
        <ele>787</ele>
        <time>2014-03-02T13:56:16Z</time>
      </trkpt>
      <trkpt lat="28.72429" lon="-17.87603">
        <ele>786.5</ele>
        <time>2014-03-02T13:57:36Z</time>
      </trkpt>
      <trkpt lat="28.72379" lon="-17.87568">
        <ele>784.1</ele>
        <time>2014-03-02T14:00:29Z</time>
      </trkpt>
      <trkpt lat="28.72372" lon="-17.87542">
        <ele>792.7</ele>
        <time>2014-03-02T14:03:12Z</time>
      </trkpt>
      <trkpt lat="28.72356" lon="-17.87553">
        <ele>794.2</ele>
        <time>2014-03-02T14:04:54Z</time>
      </trkpt>
      <trkpt lat="28.72355" lon="-17.87535">
        <ele>796.6</ele>
        <time>2014-03-02T14:05:14Z</time>
      </trkpt>
      <trkpt lat="28.72331" lon="-17.87544">
        <ele>802.8</ele>
        <time>2014-03-02T14:06:23Z</time>
      </trkpt>
      <trkpt lat="28.72306" lon="-17.87572">
        <ele>812</ele>
        <time>2014-03-02T14:07:52Z</time>
      </trkpt>
      <trkpt lat="28.72288" lon="-17.87543">
        <ele>816.8</ele>
        <time>2014-03-02T14:09:33Z</time>
      </trkpt>
      <trkpt lat="28.72179" lon="-17.8757">
        <ele>809.1</ele>
        <time>2014-03-02T14:12:02Z</time>
      </trkpt>
      <trkpt lat="28.72093" lon="-17.8757">
        <ele>815.8</ele>
        <time>2014-03-02T14:15:34Z</time>
      </trkpt>
      <trkpt lat="28.72037" lon="-17.8755">
        <ele>814.9</ele>
        <time>2014-03-02T14:16:55Z</time>
      </trkpt>
      <trkpt lat="28.71995" lon="-17.87593">
        <ele>803.3</ele>
        <time>2014-03-02T14:18:03Z</time>
      </trkpt>
      <trkpt lat="28.71946" lon="-17.87603">
        <ele>796.6</ele>
        <time>2014-03-02T14:19:24Z</time>
      </trkpt>
      <trkpt lat="28.71884" lon="-17.87655">
        <ele>789.9</ele>
        <time>2014-03-02T14:21:56Z</time>
      </trkpt>
      <trkpt lat="28.71865" lon="-17.87655">
        <ele>793.7</ele>
        <time>2014-03-02T14:22:16Z</time>
      </trkpt>
      <trkpt lat="28.71851" lon="-17.87629">
        <ele>797.1</ele>
        <time>2014-03-02T14:23:12Z</time>
      </trkpt>
      <trkpt lat="28.71846" lon="-17.87689">
        <ele>789.4</ele>
        <time>2014-03-02T14:25:09Z</time>
      </trkpt>
      <trkpt lat="28.71752" lon="-17.87713">
        <ele>766.8</ele>
        <time>2014-03-02T14:27:30Z</time>
      </trkpt>
      <trkpt lat="28.71719" lon="-17.87804">
        <ele>728.3</ele>
        <time>2014-03-02T14:32:33Z</time>
      </trkpt>
      <trkpt lat="28.71674" lon="-17.87837">
        <ele>704.3</ele>
        <time>2014-03-02T14:35:17Z</time>
      </trkpt>
      <trkpt lat="28.71631" lon="-17.87818">
        <ele>704.3</ele>
        <time>2014-03-02T14:36:01Z</time>
      </trkpt>
      <trkpt lat="28.71617" lon="-17.87841">
        <ele>690.8</ele>
        <time>2014-03-02T14:37:28Z</time>
      </trkpt>
      <trkpt lat="28.71594" lon="-17.87835">
        <ele>687.5</ele>
        <time>2014-03-02T14:37:51Z</time>
      </trkpt>
      <trkpt lat="28.71564" lon="-17.87817">
        <ele>683.2</ele>
        <time>2014-03-02T14:38:53Z</time>
      </trkpt>
      <trkpt lat="28.71569" lon="-17.87806">
        <ele>679.8</ele>
        <time>2014-03-02T14:39:07Z</time>
      </trkpt>
      <trkpt lat="28.71544" lon="-17.87828">
        <ele>671.6</ele>
        <time>2014-03-02T14:39:56Z</time>
      </trkpt>
      <trkpt lat="28.71538" lon="-17.87805">
        <ele>662</ele>
        <time>2014-03-02T14:41:03Z</time>
      </trkpt>
      <trkpt lat="28.71555" lon="-17.87773">
        <ele>652.4</ele>
        <time>2014-03-02T14:41:57Z</time>
      </trkpt>
      <trkpt lat="28.71578" lon="-17.87772">
        <ele>644.7</ele>
        <time>2014-03-02T14:43:06Z</time>
      </trkpt>
      <trkpt lat="28.71566" lon="-17.87741">
        <ele>634.6</ele>
        <time>2014-03-02T14:44:03Z</time>
      </trkpt>
      <trkpt lat="28.71584" lon="-17.87736">
        <ele>627.4</ele>
        <time>2014-03-02T14:44:42Z</time>
      </trkpt>
      <trkpt lat="28.7156" lon="-17.87713">
        <ele>623.6</ele>
        <time>2014-03-02T14:45:23Z</time>
      </trkpt>
      <trkpt lat="28.71536" lon="-17.87724">
        <ele>618.8</ele>
        <time>2014-03-02T14:45:52Z</time>
      </trkpt>
      <trkpt lat="28.71551" lon="-17.87713">
        <ele>609.6</ele>
        <time>2014-03-02T14:47:03Z</time>
      </trkpt>
      <trkpt lat="28.71545" lon="-17.877">
        <ele>607.7</ele>
        <time>2014-03-02T14:47:18Z</time>
      </trkpt>
      <trkpt lat="28.71505" lon="-17.87709">
        <ele>597.6</ele>
        <time>2014-03-02T14:48:18Z</time>
      </trkpt>
      <trkpt lat="28.71481" lon="-17.87738">
        <ele>589.9</ele>
        <time>2014-03-02T14:49:10Z</time>
      </trkpt>
      <trkpt lat="28.71454" lon="-17.87733">
        <ele>581.3</ele>
        <time>2014-03-02T14:49:43Z</time>
      </trkpt>
      <trkpt lat="28.71437" lon="-17.87764">
        <ele>576.5</ele>
        <time>2014-03-02T14:50:15Z</time>
      </trkpt>
      <trkpt lat="28.71413" lon="-17.87768">
        <ele>574.5</ele>
        <time>2014-03-02T14:50:44Z</time>
      </trkpt>
      <trkpt lat="28.71363" lon="-17.87822">
        <ele>564.9</ele>
        <time>2014-03-02T14:51:43Z</time>
      </trkpt>
      <trkpt lat="28.71299" lon="-17.87792">
        <ele>559.1</ele>
        <time>2014-03-02T14:53:11Z</time>
      </trkpt>
      <trkpt lat="28.71237" lon="-17.87863">
        <ele>547.1</ele>
        <time>2014-03-02T14:56:28Z</time>
      </trkpt>
      <trkpt lat="28.71214" lon="-17.87807">
        <ele>546.7</ele>
        <time>2014-03-02T14:59:16Z</time>
      </trkpt>
      <trkpt lat="28.7121" lon="-17.87831">
        <ele>544.7</ele>
        <time>2014-03-02T14:59:41Z</time>
      </trkpt>
      <trkpt lat="28.71173" lon="-17.87872">
        <ele>550</ele>
        <time>2014-03-02T15:00:14Z</time>
      </trkpt>
      <trkpt lat="28.71151" lon="-17.87869">
        <ele>552.9</ele>
        <time>2014-03-02T15:00:35Z</time>
      </trkpt>
      <trkpt lat="28.71143" lon="-17.87853">
        <ele>550</ele>
        <time>2014-03-02T15:00:59Z</time>
      </trkpt>
      <trkpt lat="28.71122" lon="-17.87857">
        <ele>548.6</ele>
        <time>2014-03-02T15:01:16Z</time>
      </trkpt>
      <trkpt lat="28.71073" lon="-17.87895">
        <ele>547.6</ele>
        <time>2014-03-02T15:02:15Z</time>
      </trkpt>
      <trkpt lat="28.71018" lon="-17.87993">
        <ele>553.9</ele>
        <time>2014-03-02T15:05:01Z</time>
      </trkpt>
      <trkpt lat="28.7098" lon="-17.87952">
        <ele>541.8</ele>
        <time>2014-03-02T15:06:37Z</time>
      </trkpt>
      <trkpt lat="28.70985" lon="-17.87939">
        <ele>533.7</ele>
        <time>2014-03-02T15:07:21Z</time>
      </trkpt>
      <trkpt lat="28.70965" lon="-17.87943">
        <ele>527.9</ele>
        <time>2014-03-02T15:08:10Z</time>
      </trkpt>
      <trkpt lat="28.70948" lon="-17.87925">
        <ele>527.4</ele>
        <time>2014-03-02T15:09:46Z</time>
      </trkpt>
      <trkpt lat="28.70941" lon="-17.87899">
        <ele>527.4</ele>
        <time>2014-03-02T15:10:42Z</time>
      </trkpt>
      <trkpt lat="28.70915" lon="-17.8791">
        <ele>527.4</ele>
        <time>2014-03-02T15:11:40Z</time>
      </trkpt>
      <trkpt lat="28.709" lon="-17.87882">
        <ele>524.1</ele>
        <time>2014-03-02T15:11:58Z</time>
      </trkpt>
      <trkpt lat="28.70862" lon="-17.87878">
        <ele>515.4</ele>
        <time>2014-03-02T15:12:50Z</time>
      </trkpt>
      <trkpt lat="28.70845" lon="-17.87885">
        <ele>513.5</ele>
        <time>2014-03-02T15:13:13Z</time>
      </trkpt>
      <trkpt lat="28.70837" lon="-17.87914">
        <ele>513</ele>
        <time>2014-03-02T15:13:23Z</time>
      </trkpt>
      <trkpt lat="28.70815" lon="-17.87915">
        <ele>508.7</ele>
        <time>2014-03-02T15:13:45Z</time>
      </trkpt>
      <trkpt lat="28.70797" lon="-17.87999">
        <ele>502.9</ele>
        <time>2014-03-02T15:14:34Z</time>
      </trkpt>
      <trkpt lat="28.70778" lon="-17.8801">
        <ele>502</ele>
        <time>2014-03-02T15:14:59Z</time>
      </trkpt>
      <trkpt lat="28.70767" lon="-17.88056">
        <ele>490.9</ele>
        <time>2014-03-02T15:36:59Z</time>
      </trkpt>
      <trkpt lat="28.70801" lon="-17.87976">
        <ele>487.1</ele>
        <time>2014-03-02T15:40:11Z</time>
      </trkpt>
      <trkpt lat="28.70915" lon="-17.8792">
        <ele>493.3</ele>
        <time>2014-03-02T15:43:53Z</time>
      </trkpt>
      <trkpt lat="28.70957" lon="-17.87882">
        <ele>495.7</ele>
        <time>2014-03-02T15:45:00Z</time>
      </trkpt>
      <trkpt lat="28.71006" lon="-17.87766">
        <ele>502.9</ele>
        <time>2014-03-02T15:47:37Z</time>
      </trkpt>
      <trkpt lat="28.7102" lon="-17.87704">
        <ele>507.2</ele>
        <time>2014-03-02T15:49:50Z</time>
      </trkpt>
      <trkpt lat="28.71009" lon="-17.87695">
        <ele>508.2</ele>
        <time>2014-03-02T15:50:15Z</time>
      </trkpt>
      <trkpt lat="28.71013" lon="-17.87703">
        <ele>510.1</ele>
        <time>2014-03-02T15:54:18Z</time>
      </trkpt>
      <trkpt lat="28.71041" lon="-17.87672">
        <ele>508.7</ele>
        <time>2014-03-02T15:55:07Z</time>
      </trkpt>
      <trkpt lat="28.71039" lon="-17.87682">
        <ele>508.7</ele>
        <time>2014-03-02T15:55:32Z</time>
      </trkpt>
      <trkpt lat="28.71067" lon="-17.87675">
        <ele>508.7</ele>
        <time>2014-03-02T15:55:56Z</time>
      </trkpt>
      <trkpt lat="28.70975" lon="-17.87715">
        <ele>506.3</ele>
        <time>2014-03-02T16:01:00Z</time>
      </trkpt>
      <trkpt lat="28.71003" lon="-17.87719">
        <ele>506.3</ele>
        <time>2014-03-02T16:01:43Z</time>
      </trkpt>
      <trkpt lat="28.71001" lon="-17.8773">
        <ele>505.8</ele>
        <time>2014-03-02T16:02:16Z</time>
      </trkpt>
      <trkpt lat="28.71019" lon="-17.87721">
        <ele>507.2</ele>
        <time>2014-03-02T16:03:26Z</time>
      </trkpt>
      <trkpt lat="28.70962" lon="-17.87707">
        <ele>506.8</ele>
        <time>2014-03-02T16:03:56Z</time>
      </trkpt>
      <trkpt lat="28.71005" lon="-17.87713">
        <ele>506.8</ele>
        <time>2014-03-02T16:04:39Z</time>
      </trkpt>
      <trkpt lat="28.70995" lon="-17.87698">
        <ele>507.2</ele>
        <time>2014-03-02T16:05:26Z</time>
      </trkpt>
      <trkpt lat="28.7098" lon="-17.87739">
        <ele>504.4</ele>
        <time>2014-03-02T16:08:18Z</time>
      </trkpt>
      <trkpt lat="28.70994" lon="-17.87762">
        <ele>502.9</ele>
        <time>2014-03-02T16:09:01Z</time>
      </trkpt>
      <trkpt lat="28.70963" lon="-17.87851">
        <ele>498.1</ele>
        <time>2014-03-02T16:10:40Z</time>
      </trkpt>
      <trkpt lat="28.7093" lon="-17.8786">
        <ele>496.2</ele>
        <time>2014-03-02T16:11:05Z</time>
      </trkpt>
      <trkpt lat="28.70939" lon="-17.87909">
        <ele>493.3</ele>
        <time>2014-03-02T16:11:51Z</time>
      </trkpt>
      <trkpt lat="28.70884" lon="-17.87938">
        <ele>491.4</ele>
        <time>2014-03-02T16:12:38Z</time>
      </trkpt>
      <trkpt lat="28.70917" lon="-17.87948">
        <ele>492.8</ele>
        <time>2014-03-02T16:13:40Z</time>
      </trkpt>
      <trkpt lat="28.70893" lon="-17.87937">
        <ele>491.4</ele>
        <time>2014-03-02T16:14:13Z</time>
      </trkpt>
      <trkpt lat="28.70807" lon="-17.87953">
        <ele>488</ele>
        <time>2014-03-02T16:15:37Z</time>
      </trkpt>
      <trkpt lat="28.70834" lon="-17.8797">
        <ele>487.5</ele>
        <time>2014-03-02T16:16:03Z</time>
      </trkpt>
      <trkpt lat="28.70807" lon="-17.87968">
        <ele>487.5</ele>
        <time>2014-03-02T16:16:10Z</time>
      </trkpt>
      <trkpt lat="28.70745" lon="-17.88014">
        <ele>488.5</ele>
        <time>2014-03-02T16:17:07Z</time>
      </trkpt>
      <trkpt lat="28.70742" lon="-17.88073">
        <ele>488.5</ele>
        <time>2014-03-02T16:17:57Z</time>
      </trkpt>
      <trkpt lat="28.70721" lon="-17.88084">
        <ele>483.7</ele>
        <time>2014-03-02T16:18:23Z</time>
      </trkpt>
      <trkpt lat="28.70674" lon="-17.8815">
        <ele>478.9</ele>
        <time>2014-03-02T16:19:33Z</time>
      </trkpt>
      <trkpt lat="28.70688" lon="-17.88175">
        <ele>482.2</ele>
        <time>2014-03-02T16:20:11Z</time>
      </trkpt>
      <trkpt lat="28.70678" lon="-17.88218">
        <ele>478.9</ele>
        <time>2014-03-02T16:21:31Z</time>
      </trkpt>
      <trkpt lat="28.7069" lon="-17.88243">
        <ele>478.4</ele>
        <time>2014-03-02T16:21:56Z</time>
      </trkpt>
      <trkpt lat="28.70643" lon="-17.88291">
        <ele>473.6</ele>
        <time>2014-03-02T16:22:46Z</time>
      </trkpt>
      <trkpt lat="28.70626" lon="-17.8835">
        <ele>470.7</ele>
        <time>2014-03-02T16:23:58Z</time>
      </trkpt>
      <trkpt lat="28.70645" lon="-17.88359">
        <ele>471.2</ele>
        <time>2014-03-02T16:24:20Z</time>
      </trkpt>
      <trkpt lat="28.7063" lon="-17.88367">
        <ele>470.7</ele>
        <time>2014-03-02T16:26:00Z</time>
      </trkpt>
      <trkpt lat="28.70674" lon="-17.88388">
        <ele>472.1</ele>
        <time>2014-03-02T16:26:19Z</time>
      </trkpt>
      <trkpt lat="28.70654" lon="-17.88408">
        <ele>474.1</ele>
        <time>2014-03-02T16:26:40Z</time>
      </trkpt>
      <trkpt lat="28.70553" lon="-17.88442">
        <ele>474.6</ele>
        <time>2014-03-02T16:27:22Z</time>
      </trkpt>
      <trkpt lat="28.70473" lon="-17.88524">
        <ele>476.5</ele>
        <time>2014-03-02T16:29:29Z</time>
      </trkpt>
      <trkpt lat="28.70447" lon="-17.88564">
        <ele>475.5</ele>
        <time>2014-03-02T16:29:59Z</time>
      </trkpt>
      <trkpt lat="28.7046" lon="-17.8862">
        <ele>468.3</ele>
        <time>2014-03-02T16:30:51Z</time>
      </trkpt>
      <trkpt lat="28.70442" lon="-17.88661">
        <ele>463.5</ele>
        <time>2014-03-02T16:31:45Z</time>
      </trkpt>
      <trkpt lat="28.70394" lon="-17.88683">
        <ele>463</ele>
        <time>2014-03-02T16:33:07Z</time>
      </trkpt>
      <trkpt lat="28.70315" lon="-17.88793">
        <ele>456.8</ele>
        <time>2014-03-02T16:34:39Z</time>
      </trkpt>
      <trkpt lat="28.70368" lon="-17.88898">
        <ele>454.8</ele>
        <time>2014-03-02T16:36:25Z</time>
      </trkpt>
      <trkpt lat="28.70378" lon="-17.88965">
        <ele>452.4</ele>
        <time>2014-03-02T16:37:25Z</time>
      </trkpt>
      <trkpt lat="28.70353" lon="-17.88996">
        <ele>451.5</ele>
        <time>2014-03-02T16:37:44Z</time>
      </trkpt>
      <trkpt lat="28.70373" lon="-17.89057">
        <ele>450</ele>
        <time>2014-03-02T16:38:37Z</time>
      </trkpt>
      <trkpt lat="28.70345" lon="-17.89106">
        <ele>448.1</ele>
        <time>2014-03-02T16:39:33Z</time>
      </trkpt>
      <trkpt lat="28.70356" lon="-17.89122">
        <ele>448.1</ele>
        <time>2014-03-02T16:39:50Z</time>
      </trkpt>
      <trkpt lat="28.70451" lon="-17.89135">
        <ele>446.2</ele>
        <time>2014-03-02T16:40:38Z</time>
      </trkpt>
      <trkpt lat="28.70436" lon="-17.8916">
        <ele>445.7</ele>
        <time>2014-03-02T16:40:59Z</time>
      </trkpt>
      <trkpt lat="28.70314" lon="-17.8922">
        <ele>442.3</ele>
        <time>2014-03-02T16:43:44Z</time>
      </trkpt>
      <trkpt lat="28.70222" lon="-17.89352">
        <ele>430.8</ele>
        <time>2014-03-02T16:47:28Z</time>
      </trkpt>
      <trkpt lat="28.70231" lon="-17.89323">
        <ele>430.8</ele>
        <time>2014-03-02T16:48:45Z</time>
      </trkpt>
      <trkpt lat="28.70172" lon="-17.89345">
        <ele>427</ele>
        <time>2014-03-02T16:49:52Z</time>
      </trkpt>
      <trkpt lat="28.7012" lon="-17.89439">
        <ele>422.2</ele>
        <time>2014-03-02T16:51:26Z</time>
      </trkpt>
      <trkpt lat="28.70174" lon="-17.89461">
        <ele>421.2</ele>
        <time>2014-03-02T16:51:44Z</time>
      </trkpt>
      <trkpt lat="28.70178" lon="-17.89496">
        <ele>424.1</ele>
        <time>2014-03-02T16:53:01Z</time>
      </trkpt>
      <trkpt lat="28.70172" lon="-17.89515">
        <ele>426</ele>
        <time>2014-03-02T16:54:29Z</time>
      </trkpt>
      <trkpt lat="28.70129" lon="-17.89544">
        <ele>417.8</ele>
        <time>2014-03-02T16:58:08Z</time>
      </trkpt>
      <trkpt lat="28.70069" lon="-17.89501">
        <ele>406.3</ele>
        <time>2014-03-02T16:59:54Z</time>
      </trkpt>
      <trkpt lat="28.7007" lon="-17.89526">
        <ele>404.9</ele>
        <time>2014-03-02T17:00:42Z</time>
      </trkpt>
      <trkpt lat="28.70066" lon="-17.89496">
        <ele>412.1</ele>
        <time>2014-03-02T17:01:31Z</time>
      </trkpt>
      <trkpt lat="28.70016" lon="-17.89488">
        <ele>419.3</ele>
        <time>2014-03-02T17:02:10Z</time>
      </trkpt>
      <trkpt lat="28.69987" lon="-17.89504">
        <ele>422.2</ele>
        <time>2014-03-02T17:02:56Z</time>
      </trkpt>
      <trkpt lat="28.69936" lon="-17.89475">
        <ele>423.6</ele>
        <time>2014-03-02T17:03:22Z</time>
      </trkpt>
      <trkpt lat="28.69922" lon="-17.89538">
        <ele>419.8</ele>
        <time>2014-03-02T17:04:38Z</time>
      </trkpt>
      <trkpt lat="28.69931" lon="-17.89563">
        <ele>418.8</ele>
        <time>2014-03-02T17:04:48Z</time>
      </trkpt>
      <trkpt lat="28.69903" lon="-17.89593">
        <ele>411.1</ele>
        <time>2014-03-02T17:05:36Z</time>
      </trkpt>
      <trkpt lat="28.69992" lon="-17.89505">
        <ele>413.5</ele>
        <time>2014-03-02T17:06:23Z</time>
      </trkpt>
      <trkpt lat="28.69965" lon="-17.89501">
        <ele>416.4</ele>
        <time>2014-03-02T17:06:56Z</time>
      </trkpt>
      <trkpt lat="28.69856" lon="-17.89564">
        <ele>406.8</ele>
        <time>2014-03-02T17:08:45Z</time>
      </trkpt>
      <trkpt lat="28.69859" lon="-17.89528">
        <ele>401</ele>
        <time>2014-03-02T17:09:54Z</time>
      </trkpt>
      <trkpt lat="28.69837" lon="-17.89484">
        <ele>403.9</ele>
        <time>2014-03-02T17:10:57Z</time>
      </trkpt>
      <trkpt lat="28.69758" lon="-17.8947">
        <ele>392.8</ele>
        <time>2014-03-02T17:13:25Z</time>
      </trkpt>
      <trkpt lat="28.69694" lon="-17.89492">
        <ele>383.2</ele>
        <time>2014-03-02T17:15:07Z</time>
      </trkpt>
      <trkpt lat="28.6968" lon="-17.89665">
        <ele>363</ele>
        <time>2014-03-02T17:19:44Z</time>
      </trkpt>
      <trkpt lat="28.69592" lon="-17.89675">
        <ele>359.7</ele>
        <time>2014-03-02T17:21:26Z</time>
      </trkpt>
      <trkpt lat="28.69489" lon="-17.89654">
        <ele>367.4</ele>
        <time>2014-03-02T17:23:35Z</time>
      </trkpt>
      <trkpt lat="28.69387" lon="-17.89683">
        <ele>363.5</ele>
        <time>2014-03-02T17:26:28Z</time>
      </trkpt>
      <trkpt lat="28.69376" lon="-17.89755">
        <ele>358.2</ele>
        <time>2014-03-02T17:28:00Z</time>
      </trkpt>
      <trkpt lat="28.69389" lon="-17.89757">
        <ele>353.9</ele>
        <time>2014-03-02T17:28:31Z</time>
      </trkpt>
      <trkpt lat="28.6939" lon="-17.89785">
        <ele>341.4</ele>
        <time>2014-03-02T17:29:45Z</time>
      </trkpt>
      <trkpt lat="28.69409" lon="-17.89783">
        <ele>338.5</ele>
        <time>2014-03-02T17:30:51Z</time>
      </trkpt>
      <trkpt lat="28.69466" lon="-17.89846">
        <ele>344.8</ele>
        <time>2014-03-02T17:32:40Z</time>
      </trkpt>
      <trkpt lat="28.69444" lon="-17.89945">
        <ele>340.4</ele>
        <time>2014-03-02T17:34:42Z</time>
      </trkpt>
      <trkpt lat="28.69432" lon="-17.89935">
        <ele>336.6</ele>
        <time>2014-03-02T17:35:51Z</time>
      </trkpt>
      <trkpt lat="28.69429" lon="-17.89978">
        <ele>343.3</ele>
        <time>2014-03-02T17:37:39Z</time>
      </trkpt>
      <trkpt lat="28.69444" lon="-17.90003">
        <ele>340.4</ele>
        <time>2014-03-02T17:38:23Z</time>
      </trkpt>
      <trkpt lat="28.69409" lon="-17.90006">
        <ele>332.3</ele>
        <time>2014-03-02T17:39:17Z</time>
      </trkpt>
      <trkpt lat="28.69373" lon="-17.90052">
        <ele>327.5</ele>
        <time>2014-03-02T17:40:20Z</time>
      </trkpt>
      <trkpt lat="28.69325" lon="-17.90066">
        <ele>326</ele>
        <time>2014-03-02T17:41:22Z</time>
      </trkpt>
      <trkpt lat="28.69172" lon="-17.90038">
        <ele>308.7</ele>
        <time>2014-03-02T17:45:22Z</time>
      </trkpt>
      <trkpt lat="28.69152" lon="-17.90051">
        <ele>308.2</ele>
        <time>2014-03-02T17:45:41Z</time>
      </trkpt>
      <trkpt lat="28.6912" lon="-17.90159">
        <ele>299.1</ele>
        <time>2014-03-02T17:47:33Z</time>
      </trkpt>
      <trkpt lat="28.69143" lon="-17.90256">
        <ele>293.8</ele>
        <time>2014-03-02T17:49:06Z</time>
      </trkpt>
      <trkpt lat="28.69131" lon="-17.90294">
        <ele>291.4</ele>
        <time>2014-03-02T17:49:58Z</time>
      </trkpt>
      <trkpt lat="28.69106" lon="-17.90319">
        <ele>290.5</ele>
        <time>2014-03-02T17:50:53Z</time>
      </trkpt>
      <trkpt lat="28.69085" lon="-17.90437">
        <ele>286.1</ele>
        <time>2014-03-02T17:53:17Z</time>
      </trkpt>
      <trkpt lat="28.69056" lon="-17.90492">
        <ele>282.3</ele>
        <time>2014-03-02T17:54:56Z</time>
      </trkpt>
      <trkpt lat="28.68984" lon="-17.9052">
        <ele>278.9</ele>
        <time>2014-03-02T17:56:03Z</time>
      </trkpt>
      <trkpt lat="28.68961" lon="-17.90587">
        <ele>277</ele>
        <time>2014-03-02T17:58:37Z</time>
      </trkpt>
      <trkpt lat="28.68929" lon="-17.90629">
        <ele>282.3</ele>
        <time>2014-03-02T18:00:13Z</time>
      </trkpt>
      <trkpt lat="28.689" lon="-17.90629">
        <ele>283.7</ele>
        <time>2014-03-02T18:00:43Z</time>
      </trkpt>
      <trkpt lat="28.68842" lon="-17.9066">
        <ele>289.5</ele>
        <time>2014-03-02T18:02:15Z</time>
      </trkpt>
      <trkpt lat="28.68812" lon="-17.9072">
        <ele>273.6</ele>
        <time>2014-03-02T18:04:58Z</time>
      </trkpt>
      <trkpt lat="28.68831" lon="-17.90682">
        <ele>283.7</ele>
        <time>2014-03-02T18:05:39Z</time>
      </trkpt>
      <trkpt lat="28.68776" lon="-17.90732">
        <ele>282.8</ele>
        <time>2014-03-02T18:07:03Z</time>
      </trkpt>
      <trkpt lat="28.6876" lon="-17.90785">
        <ele>275.1</ele>
        <time>2014-03-02T18:07:47Z</time>
      </trkpt>
      <trkpt lat="28.68714" lon="-17.90853">
        <ele>269.3</ele>
        <time>2014-03-02T18:09:01Z</time>
      </trkpt>
      <trkpt lat="28.6867" lon="-17.90875">
        <ele>262.6</ele>
        <time>2014-03-02T18:10:22Z</time>
      </trkpt>
    </trkseg>
  </trk>
</gpx>